CCA917 WMKP-WSSS
Flight info
| Callsign | CCA917 |
|---|---|
| Flight time | 0h 57m |
| Altitude | 33000 |
| Route | BOGUK1B ANBIK Y507 MAKNA Y511 TOPOR A464 ARAMA DCT TEBUN TEBUN1A |
| Aircraft | B738/M-SDE2E3FGHIRWXY/LB1 |
Departure
| Time | 2026-05-04 12:05 |
|---|---|
| Airport | Penang International Airport (WMKP) |
Arrival
| Time | 2026-05-04 13:03 |
|---|---|
| Airport | Singapore Changi Airport (WSSS) |
| Time | Latitude | Longitude | Altitude | Speed | Heading |
|---|---|---|---|---|---|
| 2026-05-04 11:49 | 5.29333 | 100.26746 | 22 ft | 0 kts | 311° |
| 2026-05-04 11:58 | 5.29325 | 100.26755 | 22 ft | 4 kts | 311° |
| 2026-05-04 11:58 | 5.29307 | 100.26775 | 23 ft | 4 kts | 311° |
| 2026-05-04 11:58 | 5.29290 | 100.26795 | 22 ft | 4 kts | 324° |
| 2026-05-04 11:59 | 5.29270 | 100.26799 | 23 ft | 4 kts | 32° |
| 2026-05-04 11:59 | 5.29253 | 100.26786 | 24 ft | 4 kts | 41° |
| 2026-05-04 11:59 | 5.29241 | 100.26776 | 24 ft | 0 kts | 41° |
| 2026-05-04 12:02 | 5.29012 | 100.26789 | 22 ft | 13 kts | 221° |
| 2026-05-04 12:03 | 5.28946 | 100.26729 | 22 ft | 13 kts | 222° |
| 2026-05-04 12:03 | 5.28870 | 100.26660 | 22 ft | 16 kts | 221° |
| 2026-05-04 12:03 | 5.28791 | 100.26597 | 22 ft | 14 kts | 220° |
| 2026-05-04 12:03 | 5.28702 | 100.26584 | 22 ft | 13 kts | 159° |
| 2026-05-04 12:04 | 5.28643 | 100.26649 | 23 ft | 13 kts | 110° |
| 2026-05-04 12:04 | 5.28652 | 100.26717 | 22 ft | 4 kts | 56° |
| 2026-05-04 12:04 | 5.28670 | 100.26736 | 22 ft | 0 kts | 41° |
| 2026-05-04 12:04 | 5.28674 | 100.26740 | 22 ft | 5 kts | 40° |
| 2026-05-04 12:05 | 5.28894 | 100.26939 | 24 ft | 90 kts | 42° |
| 2026-05-04 12:05 | 5.29576 | 100.27557 | 99 ft | 164 kts | 42° |
| 2026-05-04 12:05 | 5.30481 | 100.28368 | 875 ft | 180 kts | 42° |
| 2026-05-04 12:05 | 5.31365 | 100.29224 | 2007 ft | 179 kts | 55° |
| 2026-05-04 12:06 | 5.31702 | 100.30001 | 2474 ft | 192 kts | 82° |
| 2026-05-04 12:06 | 5.31594 | 100.31954 | 2905 ft | 232 kts | 95° |
| 2026-05-04 12:06 | 5.31462 | 100.33640 | 3283 ft | 254 kts | 94° |
| 2026-05-04 12:06 | 5.31363 | 100.35470 | 3856 ft | 269 kts | 92° |
| 2026-05-04 12:07 | 5.31303 | 100.37348 | 4673 ft | 271 kts | 91° |
| 2026-05-04 12:07 | 5.31264 | 100.39220 | 5049 ft | 267 kts | 90° |
| 2026-05-04 12:07 | 5.31245 | 100.40458 | 5518 ft | 270 kts | 90° |
| 2026-05-04 12:07 | 5.31152 | 100.43013 | 6562 ft | 277 kts | 100° |
| 2026-05-04 12:08 | 5.30732 | 100.44221 | 7182 ft | 278 kts | 117° |
| 2026-05-04 12:08 | 5.29565 | 100.45770 | 8136 ft | 281 kts | 131° |
| 2026-05-04 12:08 | 5.28220 | 100.47214 | 9024 ft | 285 kts | 132° |
| 2026-05-04 12:08 | 5.26855 | 100.48677 | 9897 ft | 289 kts | 131° |
| 2026-05-04 12:09 | 5.25456 | 100.50195 | 10415 ft | 307 kts | 131° |
| 2026-05-04 12:09 | 5.23945 | 100.51841 | 10601 ft | 333 kts | 131° |
| 2026-05-04 12:09 | 5.22307 | 100.53602 | 10798 ft | 356 kts | 132° |
| 2026-05-04 12:09 | 5.20578 | 100.55448 | 11288 ft | 367 kts | 132° |
| 2026-05-04 12:10 | 5.18819 | 100.57322 | 11980 ft | 370 kts | 132° |
| 2026-05-04 12:10 | 5.17071 | 100.59187 | 12715 ft | 372 kts | 132° |
| 2026-05-04 12:10 | 5.15289 | 100.61089 | 13413 ft | 376 kts | 132° |
| 2026-05-04 12:10 | 5.13493 | 100.63009 | 14018 ft | 380 kts | 132° |
| 2026-05-04 12:11 | 5.11675 | 100.64953 | 14602 ft | 383 kts | 132° |
| 2026-05-04 12:11 | 5.09842 | 100.66913 | 15184 ft | 386 kts | 132° |
| 2026-05-04 12:11 | 5.07994 | 100.68890 | 15758 ft | 390 kts | 132° |
| 2026-05-04 12:11 | 5.06135 | 100.70879 | 16331 ft | 393 kts | 132° |
| 2026-05-04 12:12 | 5.04255 | 100.72889 | 16894 ft | 396 kts | 132° |
| 2026-05-04 12:12 | 5.02362 | 100.74914 | 17440 ft | 400 kts | 132° |
| 2026-05-04 12:12 | 5.00449 | 100.76959 | 17973 ft | 403 kts | 132° |
| 2026-05-04 12:12 | 4.98519 | 100.79022 | 18447 ft | 406 kts | 133° |
| 2026-05-04 12:13 | 4.96358 | 100.80861 | 18856 ft | 411 kts | 149° |
| 2026-05-04 12:14 | 4.76250 | 100.84604 | 21916 ft | 431 kts | 170° |
| 2026-05-04 12:15 | 4.73275 | 100.85071 | 22291 ft | 434 kts | 169° |
| 2026-05-04 12:15 | 4.70284 | 100.85544 | 22697 ft | 436 kts | 169° |
| 2026-05-04 12:15 | 4.67274 | 100.86020 | 23082 ft | 439 kts | 169° |
| 2026-05-04 12:15 | 4.64255 | 100.86498 | 23436 ft | 441 kts | 169° |
| 2026-05-04 12:16 | 4.61209 | 100.86980 | 23734 ft | 443 kts | 169° |
| 2026-05-04 12:16 | 4.58191 | 100.87458 | 24021 ft | 445 kts | 169° |
| 2026-05-04 12:16 | 4.55123 | 100.87943 | 24315 ft | 447 kts | 169° |
| 2026-05-04 12:16 | 4.52036 | 100.88430 | 24609 ft | 449 kts | 169° |
| 2026-05-04 12:17 | 4.48947 | 100.88918 | 24882 ft | 451 kts | 169° |
| 2026-05-04 12:17 | 4.45843 | 100.89470 | 25145 ft | 453 kts | 164° |
| 2026-05-04 12:17 | 4.42934 | 100.90653 | 25404 ft | 452 kts | 152° |
| 2026-05-04 12:17 | 4.40116 | 100.92072 | 25715 ft | 453 kts | 152° |
| 2026-05-04 12:18 | 4.37295 | 100.93503 | 25976 ft | 456 kts | 152° |
| 2026-05-04 12:18 | 4.34452 | 100.94934 | 26224 ft | 458 kts | 152° |
| 2026-05-04 12:18 | 4.31587 | 100.96358 | 26469 ft | 460 kts | 152° |
| 2026-05-04 12:18 | 4.28706 | 100.97776 | 26718 ft | 462 kts | 152° |
| 2026-05-04 12:19 | 4.25851 | 100.99172 | 26973 ft | 463 kts | 153° |
| 2026-05-04 12:19 | 4.22947 | 101.00587 | 27216 ft | 465 kts | 153° |
| 2026-05-04 12:19 | 4.20029 | 101.02006 | 27469 ft | 467 kts | 153° |
| 2026-05-04 12:19 | 4.17101 | 101.03431 | 27692 ft | 469 kts | 153° |
| 2026-05-04 12:20 | 4.14159 | 101.04862 | 27925 ft | 470 kts | 152° |
| 2026-05-04 12:20 | 4.11215 | 101.06295 | 28139 ft | 472 kts | 152° |
| 2026-05-04 12:20 | 4.08260 | 101.07734 | 28365 ft | 473 kts | 152° |
| 2026-05-04 12:20 | 4.05288 | 101.09181 | 28583 ft | 475 kts | 152° |
| 2026-05-04 12:21 | 4.02310 | 101.10631 | 28782 ft | 477 kts | 152° |
| 2026-05-04 12:21 | 3.99338 | 101.12078 | 28983 ft | 478 kts | 152° |
| 2026-05-04 12:21 | 3.96337 | 101.13539 | 29174 ft | 480 kts | 152° |
| 2026-05-04 12:21 | 3.93332 | 101.15001 | 29384 ft | 481 kts | 152° |
| 2026-05-04 12:22 | 3.90321 | 101.16467 | 29647 ft | 481 kts | 152° |
| 2026-05-04 12:22 | 3.87318 | 101.17929 | 29969 ft | 479 kts | 152° |
| 2026-05-04 12:22 | 3.84316 | 101.19389 | 30247 ft | 478 kts | 152° |
| 2026-05-04 12:22 | 3.81325 | 101.20845 | 30481 ft | 478 kts | 152° |
| 2026-05-04 12:23 | 3.78326 | 101.22305 | 30695 ft | 479 kts | 152° |
| 2026-05-04 12:23 | 3.75335 | 101.23774 | 30939 ft | 479 kts | 152° |
| 2026-05-04 12:23 | 3.72367 | 101.25294 | 31200 ft | 478 kts | 151° |
| 2026-05-04 12:23 | 3.69461 | 101.26816 | 31485 ft | 477 kts | 151° |
| 2026-05-04 12:24 | 3.66521 | 101.28366 | 31749 ft | 477 kts | 151° |
| 2026-05-04 12:24 | 3.63581 | 101.29914 | 31996 ft | 477 kts | 151° |
| 2026-05-04 12:24 | 3.60634 | 101.31458 | 32259 ft | 477 kts | 150° |
| 2026-05-04 12:24 | 3.57686 | 101.32997 | 32540 ft | 477 kts | 150° |
| 2026-05-04 12:25 | 3.54739 | 101.34532 | 32842 ft | 476 kts | 150° |
| 2026-05-04 12:25 | 3.51793 | 101.36064 | 32860 ft | 479 kts | 151° |
| 2026-05-04 12:25 | 3.45884 | 101.39136 | 32879 ft | 477 kts | 150° |
| 2026-05-04 12:26 | 3.40048 | 101.42172 | 32885 ft | 474 kts | 150° |
| 2026-05-04 12:26 | 3.34194 | 101.45217 | 32862 ft | 473 kts | 151° |
| 2026-05-04 12:27 | 3.28304 | 101.48153 | 32865 ft | 473 kts | 153° |
| 2026-05-04 12:27 | 3.22303 | 101.50868 | 32852 ft | 473 kts | 154° |
| 2026-05-04 12:28 | 3.16289 | 101.53583 | 32866 ft | 474 kts | 154° |
| 2026-05-04 12:28 | 3.10322 | 101.56317 | 32863 ft | 475 kts | 154° |
| 2026-05-04 12:29 | 3.04321 | 101.59085 | 32864 ft | 475 kts | 153° |
| 2026-05-04 12:29 | 2.98321 | 101.61853 | 32857 ft | 476 kts | 154° |
| 2026-05-04 12:30 | 2.92305 | 101.64627 | 32861 ft | 477 kts | 154° |
| 2026-05-04 12:30 | 2.86279 | 101.67403 | 32866 ft | 477 kts | 154° |
| 2026-05-04 12:31 | 2.80279 | 101.70168 | 32865 ft | 477 kts | 153° |
| 2026-05-04 12:31 | 2.74253 | 101.72945 | 32851 ft | 477 kts | 153° |
| 2026-05-04 12:32 | 2.65285 | 101.77241 | 32856 ft | 476 kts | 152° |
| 2026-05-04 12:33 | 2.59338 | 101.80159 | 32849 ft | 476 kts | 152° |
| 2026-05-04 12:33 | 2.53743 | 101.83606 | 32867 ft | 472 kts | 138° |
| 2026-05-04 12:34 | 2.49366 | 101.88437 | 32874 ft | 468 kts | 125° |
| 2026-05-04 12:34 | 2.45530 | 101.93646 | 32859 ft | 468 kts | 125° |
| 2026-05-04 12:35 | 2.41653 | 101.98891 | 32858 ft | 468 kts | 125° |
| 2026-05-04 12:35 | 2.37827 | 102.04002 | 32865 ft | 468 kts | 125° |
| 2026-05-04 12:36 | 2.33905 | 102.09213 | 32876 ft | 469 kts | 126° |
| 2026-05-04 12:36 | 2.29981 | 102.14423 | 32860 ft | 469 kts | 126° |
| 2026-05-04 12:37 | 2.26081 | 102.19604 | 32888 ft | 469 kts | 126° |
| 2026-05-04 12:37 | 2.22152 | 102.24825 | 32890 ft | 469 kts | 126° |
| 2026-05-04 12:38 | 2.18222 | 102.30046 | 32872 ft | 469 kts | 126° |
| 2026-05-04 12:38 | 2.14293 | 102.35266 | 32884 ft | 469 kts | 126° |
| 2026-05-04 12:39 | 2.10375 | 102.40471 | 32890 ft | 469 kts | 126° |
| 2026-05-04 12:39 | 2.06453 | 102.45682 | 32888 ft | 468 kts | 126° |
| 2026-05-04 12:40 | 2.02538 | 102.50881 | 32889 ft | 467 kts | 126° |
| 2026-05-04 12:40 | 1.98667 | 102.56022 | 32886 ft | 467 kts | 126° |
| 2026-05-04 12:41 | 1.94762 | 102.61210 | 32878 ft | 466 kts | 126° |
| 2026-05-04 12:41 | 1.90888 | 102.66359 | 32885 ft | 466 kts | 126° |
| 2026-05-04 12:42 | 1.86995 | 102.71533 | 32889 ft | 465 kts | 126° |
| 2026-05-04 12:42 | 1.85046 | 102.74123 | 32784 ft | 466 kts | 126° |
| 2026-05-04 12:42 | 1.83101 | 102.76707 | 32515 ft | 465 kts | 126° |
| 2026-05-04 12:42 | 1.81151 | 102.79297 | 31787 ft | 466 kts | 126° |
| 2026-05-04 12:43 | 1.79208 | 102.81880 | 31059 ft | 465 kts | 126° |
| 2026-05-04 12:43 | 1.77258 | 102.84471 | 30217 ft | 467 kts | 126° |
| 2026-05-04 12:43 | 1.75299 | 102.87073 | 29220 ft | 470 kts | 126° |
| 2026-05-04 12:43 | 1.73371 | 102.89721 | 28202 ft | 471 kts | 123° |
| 2026-05-04 12:44 | 1.71712 | 102.92576 | 26953 ft | 478 kts | 117° |
| 2026-05-04 12:44 | 1.70180 | 102.95547 | 25796 ft | 482 kts | 116° |
| 2026-05-04 12:44 | 1.68687 | 102.98481 | 24996 ft | 478 kts | 116° |
| 2026-05-04 12:44 | 1.67225 | 103.01298 | 24240 ft | 474 kts | 117° |
| 2026-05-04 12:45 | 1.65687 | 103.04194 | 23475 ft | 470 kts | 117° |
| 2026-05-04 12:45 | 1.64145 | 103.07067 | 22583 ft | 466 kts | 118° |
| 2026-05-04 12:45 | 1.62373 | 103.09751 | 21772 ft | 461 kts | 129° |
| 2026-05-04 12:45 | 1.60068 | 103.11955 | 21030 ft | 456 kts | 141° |
| 2026-05-04 12:46 | 1.57432 | 103.13689 | 20292 ft | 453 kts | 151° |
| 2026-05-04 12:46 | 1.54543 | 103.14911 | 19558 ft | 449 kts | 157° |
| 2026-05-04 12:46 | 1.51639 | 103.16018 | 18810 ft | 445 kts | 157° |
| 2026-05-04 12:46 | 1.48762 | 103.17120 | 18067 ft | 441 kts | 157° |
| 2026-05-04 12:47 | 1.45916 | 103.18227 | 17241 ft | 436 kts | 157° |
| 2026-05-04 12:47 | 1.43117 | 103.19330 | 16822 ft | 424 kts | 156° |
| 2026-05-04 12:47 | 1.40431 | 103.20397 | 16594 ft | 409 kts | 156° |
| 2026-05-04 12:47 | 1.37777 | 103.21457 | 16244 ft | 415 kts | 156° |
| 2026-05-04 12:48 | 1.35083 | 103.22534 | 15885 ft | 419 kts | 156° |
| 2026-05-04 12:48 | 1.32381 | 103.23614 | 15522 ft | 417 kts | 157° |
| 2026-05-04 12:48 | 1.29701 | 103.24684 | 15169 ft | 414 kts | 157° |
| 2026-05-04 12:48 | 1.27069 | 103.25734 | 14830 ft | 411 kts | 157° |
| 2026-05-04 12:49 | 1.24439 | 103.26802 | 14469 ft | 398 kts | 154° |
| 2026-05-04 12:49 | 1.22093 | 103.28128 | 14116 ft | 377 kts | 144° |
| 2026-05-04 12:49 | 1.20101 | 103.29718 | 13750 ft | 358 kts | 136° |
| 2026-05-04 12:49 | 1.18441 | 103.31501 | 13345 ft | 343 kts | 130° |
| 2026-05-04 12:50 | 1.16910 | 103.33276 | 12931 ft | 331 kts | 130° |
| 2026-05-04 12:50 | 1.15440 | 103.34995 | 12517 ft | 320 kts | 130° |
| 2026-05-04 12:50 | 1.14013 | 103.36659 | 12133 ft | 311 kts | 130° |
| 2026-05-04 12:50 | 1.12621 | 103.38275 | 11741 ft | 304 kts | 130° |
| 2026-05-04 12:51 | 1.11252 | 103.39860 | 11353 ft | 299 kts | 130° |
| 2026-05-04 12:51 | 1.09887 | 103.41436 | 10989 ft | 302 kts | 130° |
| 2026-05-04 12:51 | 1.08586 | 103.43095 | 10608 ft | 306 kts | 117° |
| 2026-05-04 12:51 | 1.08075 | 103.45133 | 10233 ft | 305 kts | 90° |
| 2026-05-04 12:52 | 1.08148 | 103.47245 | 9883 ft | 304 kts | 87° |
| 2026-05-04 12:52 | 1.08250 | 103.49353 | 9589 ft | 302 kts | 87° |
| 2026-05-04 12:52 | 1.08340 | 103.51437 | 9293 ft | 299 kts | 88° |
| 2026-05-04 12:52 | 1.08416 | 103.53510 | 8991 ft | 297 kts | 88° |
| 2026-05-04 12:53 | 1.08480 | 103.55563 | 8691 ft | 295 kts | 88° |
| 2026-05-04 12:53 | 1.08535 | 103.57601 | 8396 ft | 293 kts | 88° |
| 2026-05-04 12:53 | 1.08583 | 103.59625 | 8107 ft | 291 kts | 88° |
| 2026-05-04 12:53 | 1.08629 | 103.61638 | 7814 ft | 289 kts | 88° |
| 2026-05-04 12:54 | 1.08672 | 103.63635 | 7528 ft | 287 kts | 88° |
| 2026-05-04 12:54 | 1.08713 | 103.65627 | 7247 ft | 286 kts | 88° |
| 2026-05-04 12:54 | 1.08754 | 103.67605 | 6969 ft | 284 kts | 88° |
| 2026-05-04 12:54 | 1.08794 | 103.69586 | 6686 ft | 283 kts | 88° |
| 2026-05-04 12:55 | 1.08834 | 103.71543 | 6415 ft | 283 kts | 88° |
| 2026-05-04 12:55 | 1.08873 | 103.73508 | 6132 ft | 282 kts | 88° |
| 2026-05-04 12:55 | 1.08911 | 103.75424 | 5828 ft | 276 kts | 88° |
| 2026-05-04 12:55 | 1.08949 | 103.77308 | 5551 ft | 267 kts | 88° |
| 2026-05-04 12:56 | 1.08985 | 103.79138 | 5297 ft | 258 kts | 88° |
| 2026-05-04 12:56 | 1.09021 | 103.80903 | 5047 ft | 251 kts | 88° |
| 2026-05-04 12:56 | 1.09055 | 103.82618 | 4801 ft | 244 kts | 88° |
| 2026-05-04 12:56 | 1.09172 | 103.84287 | 4534 ft | 237 kts | 73° |
| 2026-05-04 12:57 | 1.09612 | 103.85265 | 4380 ft | 230 kts | 54° |
| 2026-05-04 12:57 | 1.10883 | 103.86902 | 4150 ft | 219 kts | 50° |
| 2026-05-04 12:57 | 1.11946 | 103.87974 | 3982 ft | 218 kts | 29° |
| 2026-05-04 12:57 | 1.12854 | 103.88379 | 3917 ft | 214 kts | 20° |
| 2026-05-04 12:58 | 1.14235 | 103.88945 | 3739 ft | 215 kts | 22° |
| 2026-05-04 12:58 | 1.15604 | 103.89537 | 3576 ft | 215 kts | 22° |
| 2026-05-04 12:58 | 1.16974 | 103.90126 | 3403 ft | 212 kts | 22° |
| 2026-05-04 12:58 | 1.18304 | 103.90692 | 3314 ft | 201 kts | 22° |
| 2026-05-04 12:59 | 1.19571 | 103.91231 | 3110 ft | 196 kts | 22° |
| 2026-05-04 12:59 | 1.20793 | 103.91750 | 2887 ft | 194 kts | 22° |
| 2026-05-04 12:59 | 1.22037 | 103.92278 | 2632 ft | 194 kts | 22° |
| 2026-05-04 12:59 | 1.23269 | 103.92802 | 2380 ft | 193 kts | 22° |
| 2026-05-04 13:00 | 1.24491 | 103.93322 | 2117 ft | 188 kts | 22° |
| 2026-05-04 13:00 | 1.25681 | 103.93828 | 1884 ft | 183 kts | 23° |
| 2026-05-04 13:00 | 1.26808 | 103.94306 | 1655 ft | 173 kts | 23° |
| 2026-05-04 13:00 | 1.27875 | 103.94760 | 1440 ft | 164 kts | 23° |
| 2026-05-04 13:01 | 1.28902 | 103.95197 | 1207 ft | 158 kts | 23° |
| 2026-05-04 13:01 | 1.29919 | 103.95632 | 1010 ft | 160 kts | 24° |
| 2026-05-04 13:01 | 1.30959 | 103.96074 | 839 ft | 164 kts | 23° |
| 2026-05-04 13:01 | 1.32016 | 103.96526 | 648 ft | 167 kts | 23° |
| 2026-05-04 13:02 | 1.33082 | 103.96979 | 438 ft | 163 kts | 22° |
| 2026-05-04 13:02 | 1.34098 | 103.97409 | 238 ft | 155 kts | 22° |
| 2026-05-04 13:02 | 1.35085 | 103.97825 | 50 ft | 153 kts | 22° |
| 2026-05-04 13:02 | 1.35999 | 103.98210 | 30 ft | 124 kts | 24° |
| 2026-05-04 13:03 | 1.36534 | 103.98436 | 29 ft | 35 kts | 22° |
| 2026-05-04 13:03 | 1.36693 | 103.98552 | 29 ft | 20 kts | 49° |
| 2026-05-04 13:03 | 1.36770 | 103.98651 | 29 ft | 18 kts | 52° |
| 2026-05-04 13:03 | 1.36828 | 103.98727 | 29 ft | 10 kts | 52° |
| 2026-05-04 13:04 | 1.36841 | 103.98795 | 29 ft | 10 kts | 108° |
| 2026-05-04 13:04 | 1.36813 | 103.98859 | 29 ft | 10 kts | 113° |
| 2026-05-04 13:04 | 1.36787 | 103.98922 | 29 ft | 10 kts | 113° |
| 2026-05-04 13:04 | 1.36760 | 103.98983 | 29 ft | 9 kts | 113° |
| 2026-05-04 13:05 | 1.36733 | 103.99046 | 29 ft | 12 kts | 114° |
| 2026-05-04 13:05 | 1.36699 | 103.99110 | 29 ft | 10 kts | 141° |
| 2026-05-04 13:05 | 1.36632 | 103.99124 | 29 ft | 10 kts | 173° |
| 2026-05-04 13:05 | 1.36550 | 103.99134 | 29 ft | 13 kts | 173° |
| 2026-05-04 13:06 | 1.36458 | 103.99146 | 29 ft | 13 kts | 173° |
| 2026-05-04 13:06 | 1.36376 | 103.99124 | 29 ft | 12 kts | 207° |
| 2026-05-04 13:06 | 1.36324 | 103.99101 | 29 ft | 6 kts | 202° |
| 2026-05-04 13:06 | 1.36286 | 103.99115 | 29 ft | 6 kts | 133° |
| 2026-05-04 13:07 | 1.36258 | 103.99146 | 29 ft | 6 kts | 131° |
| 2026-05-04 13:07 | 1.36243 | 103.99164 | 29 ft | 2 kts | 131° |
| 2026-05-04 13:07 | 1.36237 | 103.99170 | 29 ft | 1 kts | 131° |
| 2026-05-04 13:07 | 1.36236 | 103.99171 | 29 ft | 0 kts | 131° |